sensor_id;sensor_type;location;lat;lon;timestamp;noise_LAeq;noise_LA_min;noise_LA_max;noise_LA01;noise_LA95
74214;Laerm;62576;55.694;37.494;2023-06-01T10:25:47;63.59;56.69;72.30;;
74214;Laerm;62576;55.694;37.494;2023-06-01T10:28:19;64.76;56.97;74.90;;
74214;Laerm;62576;55.694;37.494;2023-06-01T10:33:55;64.55;57.62;77.30;;
74214;Laerm;62576;55.694;37.494;2023-06-01T10:39:30;65.07;57.48;73.80;;
74214;Laerm;62576;55.694;37.494;2023-06-01T10:42:35;64.29;55.18;70.00;;
74214;Laerm;62576;55.694;37.494;2023-06-01T10:45:08;63.16;55.89;72.62;;
74214;Laerm;62576;55.694;37.494;2023-06-01T10:47:58;63.16;55.93;74.50;;
74214;Laerm;62576;55.694;37.494;2023-06-01T10:50:28;66.30;59.06;77.22;;
74214;Laerm;62576;55.694;37.494;2023-06-01T10:53:28;65.66;58.46;74.96;;
74214;Laerm;62576;55.694;37.494;2023-06-01T10:56:18;64.28;58.75;74.83;;
74214;Laerm;62576;55.694;37.494;2023-06-01T10:59:09;65.82;57.91;78.92;;
74214;Laerm;62576;55.694;37.494;2023-06-01T11:01:41;64.80;54.70;72.85;;
74214;Laerm;62576;55.694;37.494;2023-06-01T11:04:11;64.52;53.36;76.01;;
74214;Laerm;62576;55.694;37.494;2023-06-01T11:06:42;64.89;54.58;73.52;;
74214;Laerm;62576;55.694;37.494;2023-06-01T11:09:13;66.92;56.68;82.05;;
74214;Laerm;62576;55.694;37.494;2023-06-01T11:12:07;65.16;57.75;82.35;;
74214;Laerm;62576;55.694;37.494;2023-06-01T11:15:08;65.64;57.26;70.51;;
74214;Laerm;62576;55.694;37.494;2023-06-01T11:17:40;65.42;55.43;74.99;;
74214;Laerm;62576;55.694;37.494;2023-06-01T11:20:10;66.93;53.83;82.74;;
74214;Laerm;62576;55.694;37.494;2023-06-01T11:22:41;65.19;58.50;70.35;;
74214;Laerm;62576;55.694;37.494;2023-06-01T11:25:11;65.76;57.55;77.15;;
74214;Laerm;62576;55.694;37.494;2023-06-01T11:27:44;64.76;56.52;70.86;;
74214;Laerm;62576;55.694;37.494;2023-06-01T11:30:20;64.60;50.51;75.04;;
74214;Laerm;62576;55.694;37.494;2023-06-01T11:32:51;64.48;52.96;82.16;;
74214;Laerm;62576;55.694;37.494;2023-06-01T11:35:22;63.91;55.11;70.78;;
74214;Laerm;62576;55.694;37.494;2023-06-01T11:37:55;64.80;57.66;76.60;;
74214;Laerm;62576;55.694;37.494;2023-06-01T11:40:29;65.25;58.50;76.69;;
74214;Laerm;62576;55.694;37.494;2023-06-01T11:43:00;65.68;58.23;74.56;;
74214;Laerm;62576;55.694;37.494;2023-06-01T11:45:32;66.25;58.44;81.25;;
74214;Laerm;62576;55.694;37.494;2023-06-01T11:48:10;63.85;57.95;71.89;;
74214;Laerm;62576;55.694;37.494;2023-06-01T11:50:46;66.71;58.52;87.42;;
74214;Laerm;62576;55.694;37.494;2023-06-01T11:53:16;69.18;59.19;91.49;;
74214;Laerm;62576;55.694;37.494;2023-06-01T11:55:52;65.35;59.47;82.19;;
74214;Laerm;62576;55.694;37.494;2023-06-01T11:58:23;64.16;58.15;69.46;;
74214;Laerm;62576;55.694;37.494;2023-06-01T12:00:55;66.72;61.15;73.62;;
74214;Laerm;62576;55.694;37.494;2023-06-01T12:03:26;64.34;59.75;68.58;;
74214;Laerm;62576;55.694;37.494;2023-06-01T12:05:56;65.38;60.17;73.77;;
74214;Laerm;62576;55.694;37.494;2023-06-01T12:08:26;65.04;58.43;75.28;;
74214;Laerm;62576;55.694;37.494;2023-06-01T12:10:57;66.36;58.36;81.00;;
74214;Laerm;62576;55.694;37.494;2023-06-01T12:13:27;66.85;58.65;81.14;;
74214;Laerm;62576;55.694;37.494;2023-06-01T12:15:59;64.08;57.88;72.46;;
74214;Laerm;62576;55.694;37.494;2023-06-01T12:18:31;64.36;57.07;73.54;;
74214;Laerm;62576;55.694;37.494;2023-06-01T12:21:08;64.59;58.45;72.26;;
74214;Laerm;62576;55.694;37.494;2023-06-01T12:23:35;64.89;58.09;70.06;;
74214;Laerm;62576;55.694;37.494;2023-06-01T12:26:05;65.31;58.11;71.65;;
74214;Laerm;62576;55.694;37.494;2023-06-01T12:28:50;65.48;57.97;70.83;;
74214;Laerm;62576;55.694;37.494;2023-06-01T12:31:24;63.73;58.20;76.34;;
74214;Laerm;62576;55.694;37.494;2023-06-01T12:33:54;65.94;58.43;78.12;;
74214;Laerm;62576;55.694;37.494;2023-06-01T12:36:29;65.41;58.06;78.39;;
74214;Laerm;62576;55.694;37.494;2023-06-01T12:39:02;65.31;58.14;70.70;;
74214;Laerm;62576;55.694;37.494;2023-06-01T12:41:33;65.61;57.50;73.93;;
74214;Laerm;62576;55.694;37.494;2023-06-01T12:44:04;65.94;58.32;77.86;;
74214;Laerm;62576;55.694;37.494;2023-06-01T12:46:35;65.18;59.03;76.09;;
74214;Laerm;62576;55.694;37.494;2023-06-01T12:49:20;64.96;58.51;76.33;;
74214;Laerm;62576;55.694;37.494;2023-06-01T12:51:50;65.22;58.14;83.28;;
74214;Laerm;62576;55.694;37.494;2023-06-01T12:54:20;65.61;58.27;72.96;;
74214;Laerm;62576;55.694;37.494;2023-06-01T12:56:51;66.04;59.24;71.67;;
74214;Laerm;62576;55.694;37.494;2023-06-01T12:59:21;65.27;58.90;71.49;;
74214;Laerm;62576;55.694;37.494;2023-06-01T13:01:53;65.23;58.99;69.70;;
74214;Laerm;62576;55.694;37.494;2023-06-01T13:04:23;65.45;58.17;79.42;;
74214;Laerm;62576;55.694;37.494;2023-06-01T13:06:53;64.64;57.56;72.42;;
74214;Laerm;62576;55.694;37.494;2023-06-01T13:09:24;63.74;58.72;73.61;;
74214;Laerm;62576;55.694;37.494;2023-06-01T13:11:54;66.15;57.90;83.06;;
74214;Laerm;62576;55.694;37.494;2023-06-01T13:14:24;66.23;58.44;83.53;;
74214;Laerm;62576;55.694;37.494;2023-06-01T13:16:55;65.14;57.27;78.49;;
74214;Laerm;62576;55.694;37.494;2023-06-01T13:19:25;65.21;57.97;73.71;;
74214;Laerm;62576;55.694;37.494;2023-06-01T13:21:55;65.85;57.94;81.58;;
74214;Laerm;62576;55.694;37.494;2023-06-01T13:24:26;65.15;58.32;75.04;;
74214;Laerm;62576;55.694;37.494;2023-06-01T13:26:56;69.47;58.29;88.29;;
74214;Laerm;62576;55.694;37.494;2023-06-01T13:29:26;64.44;58.83;69.22;;
74214;Laerm;62576;55.694;37.494;2023-06-01T13:31:58;65.15;58.59;76.25;;
74214;Laerm;62576;55.694;37.494;2023-06-01T13:34:28;65.12;58.27;72.31;;
74214;Laerm;62576;55.694;37.494;2023-06-01T13:36:55;64.42;58.63;71.35;;
74214;Laerm;62576;55.694;37.494;2023-06-01T13:39:25;65.73;58.21;74.16;;
74214;Laerm;62576;55.694;37.494;2023-06-01T13:41:55;65.86;59.22;74.62;;
74214;Laerm;62576;55.694;37.494;2023-06-01T13:44:25;65.41;58.32;74.27;;
74214;Laerm;62576;55.694;37.494;2023-06-01T13:46:55;65.61;58.61;76.28;;
74214;Laerm;62576;55.694;37.494;2023-06-01T13:49:26;65.42;58.46;77.15;;
74214;Laerm;62576;55.694;37.494;2023-06-01T13:51:56;64.54;58.82;74.03;;
74214;Laerm;62576;55.694;37.494;2023-06-01T13:54:27;68.98;59.25;83.99;;
74214;Laerm;62576;55.694;37.494;2023-06-01T13:56:58;64.13;58.18;69.90;;
74214;Laerm;62576;55.694;37.494;2023-06-01T13:59:29;64.89;58.49;69.46;;
74214;Laerm;62576;55.694;37.494;2023-06-01T14:01:59;64.91;58.16;69.20;;
74214;Laerm;62576;55.694;37.494;2023-06-01T14:04:31;65.18;59.13;69.99;;
74214;Laerm;62576;55.694;37.494;2023-06-01T14:07:01;66.39;58.78;77.23;;
74214;Laerm;62576;55.694;37.494;2023-06-01T14:09:30;67.82;58.40;83.27;;
74214;Laerm;62576;55.694;37.494;2023-06-01T14:12:00;64.82;58.97;71.18;;
74214;Laerm;62576;55.694;37.494;2023-06-01T14:14:31;65.00;59.09;72.08;;
74214;Laerm;62576;55.694;37.494;2023-06-01T14:17:00;64.94;58.36;75.89;;
74214;Laerm;62576;55.694;37.494;2023-06-01T14:19:32;68.53;58.75;81.72;;
74214;Laerm;62576;55.694;37.494;2023-06-01T14:22:02;65.57;58.82;74.60;;
74214;Laerm;62576;55.694;37.494;2023-06-01T14:24:32;65.03;57.79;71.11;;
74214;Laerm;62576;55.694;37.494;2023-06-01T14:27:02;65.61;58.78;76.06;;
74214;Laerm;62576;55.694;37.494;2023-06-01T14:29:35;65.89;57.87;74.27;;
74214;Laerm;62576;55.694;37.494;2023-06-01T14:32:05;65.04;58.24;73.92;;
74214;Laerm;62576;55.694;37.494;2023-06-01T14:34:39;65.44;59.11;71.74;;
74214;Laerm;62576;55.694;37.494;2023-06-01T14:37:10;65.52;58.47;70.34;;
74214;Laerm;62576;55.694;37.494;2023-06-01T14:39:42;64.87;59.03;79.16;;
74214;Laerm;62576;55.694;37.494;2023-06-01T14:42:12;66.63;59.76;74.40;;
74214;Laerm;62576;55.694;37.494;2023-06-01T14:44:43;67.32;60.82;82.90;;
74214;Laerm;62576;55.694;37.494;2023-06-01T14:47:12;69.30;59.14;85.98;;
74214;Laerm;62576;55.694;37.494;2023-06-01T14:49:44;65.14;58.87;73.23;;
74214;Laerm;62576;55.694;37.494;2023-06-01T14:52:13;64.38;59.17;71.64;;
74214;Laerm;62576;55.694;37.494;2023-06-01T14:54:43;66.17;59.62;77.76;;
74214;Laerm;62576;55.694;37.494;2023-06-01T14:57:13;64.90;58.33;70.20;;
74214;Laerm;62576;55.694;37.494;2023-06-01T14:59:44;65.06;58.74;73.41;;
74214;Laerm;62576;55.694;37.494;2023-06-01T15:02:14;64.92;57.83;71.77;;
74214;Laerm;62576;55.694;37.494;2023-06-01T15:04:45;65.76;58.09;88.12;;
74214;Laerm;62576;55.694;37.494;2023-06-01T15:07:15;65.31;57.92;75.81;;
74214;Laerm;62576;55.694;37.494;2023-06-01T15:09:45;65.68;58.56;76.06;;
74214;Laerm;62576;55.694;37.494;2023-06-01T15:12:15;65.00;58.83;72.94;;
74214;Laerm;62576;55.694;37.494;2023-06-01T15:14:45;65.68;58.32;74.12;;
74214;Laerm;62576;55.694;37.494;2023-06-01T15:17:16;64.97;58.99;72.25;;
74214;Laerm;62576;55.694;37.494;2023-06-01T15:19:48;65.47;59.90;81.44;;
74214;Laerm;62576;55.694;37.494;2023-06-01T15:22:18;67.64;59.98;81.05;;
74214;Laerm;62576;55.694;37.494;2023-06-01T15:24:48;65.34;59.18;71.05;;
74214;Laerm;62576;55.694;37.494;2023-06-01T15:27:18;64.87;58.36;72.32;;
74214;Laerm;62576;55.694;37.494;2023-06-01T15:29:48;66.03;58.76;73.24;;
74214;Laerm;62576;55.694;37.494;2023-06-01T15:32:22;65.10;59.39;71.58;;
74214;Laerm;62576;55.694;37.494;2023-06-01T15:34:53;65.16;59.48;73.87;;
74214;Laerm;62576;55.694;37.494;2023-06-01T15:37:23;63.88;59.47;69.93;;
74214;Laerm;62576;55.694;37.494;2023-06-01T15:39:56;64.80;58.86;72.36;;
74214;Laerm;62576;55.694;37.494;2023-06-01T15:42:26;66.28;58.88;79.05;;
74214;Laerm;62576;55.694;37.494;2023-06-01T15:44:56;65.64;58.67;70.90;;
74214;Laerm;62576;55.694;37.494;2023-06-01T15:47:26;65.37;57.96;81.40;;
74214;Laerm;62576;55.694;37.494;2023-06-01T15:49:58;65.42;58.89;76.03;;
74214;Laerm;62576;55.694;37.494;2023-06-01T15:52:28;66.20;57.59;79.45;;
74214;Laerm;62576;55.694;37.494;2023-06-01T15:54:59;67.20;57.57;77.69;;
74214;Laerm;62576;55.694;37.494;2023-06-01T15:58:00;66.05;58.00;80.90;;
74214;Laerm;62576;55.694;37.494;2023-06-01T16:00:30;65.35;59.45;73.51;;
74214;Laerm;62576;55.694;37.494;2023-06-01T16:03:00;65.29;57.83;72.54;;
74214;Laerm;62576;55.694;37.494;2023-06-01T16:05:32;64.33;58.11;72.82;;
74214;Laerm;62576;55.694;37.494;2023-06-01T16:08:03;67.21;59.88;79.31;;
74214;Laerm;62576;55.694;37.494;2023-06-01T16:10:33;65.81;58.03;76.29;;
74214;Laerm;62576;55.694;37.494;2023-06-01T16:13:03;65.04;59.54;69.01;;
74214;Laerm;62576;55.694;37.494;2023-06-01T16:15:33;64.75;57.30;69.41;;
74214;Laerm;62576;55.694;37.494;2023-06-01T16:18:03;65.26;58.28;80.25;;
74214;Laerm;62576;55.694;37.494;2023-06-01T16:20:35;65.05;57.84;72.17;;
74214;Laerm;62576;55.694;37.494;2023-06-01T16:23:05;64.49;58.00;72.45;;
74214;Laerm;62576;55.694;37.494;2023-06-01T16:25:35;63.96;58.65;70.52;;
74214;Laerm;62576;55.694;37.494;2023-06-01T16:28:05;64.07;57.44;81.32;;
74214;Laerm;62576;55.694;37.494;2023-06-01T16:30:36;64.54;57.84;81.32;;
74214;Laerm;62576;55.694;37.494;2023-06-01T16:33:07;62.99;56.92;70.10;;
74214;Laerm;62576;55.694;37.494;2023-06-01T16:35:40;63.48;58.25;79.98;;
74214;Laerm;62576;55.694;37.494;2023-06-01T16:38:10;63.76;59.75;69.25;;
74214;Laerm;62576;55.694;37.494;2023-06-01T16:40:40;64.84;57.16;75.48;;
74214;Laerm;62576;55.694;37.494;2023-06-01T16:43:10;65.13;57.37;73.16;;
74214;Laerm;62576;55.694;37.494;2023-06-01T16:45:41;64.67;57.95;70.10;;
74214;Laerm;62576;55.694;37.494;2023-06-01T16:48:11;63.92;58.52;76.36;;
74214;Laerm;62576;55.694;37.494;2023-06-01T16:50:43;66.43;57.79;81.36;;
74214;Laerm;62576;55.694;37.494;2023-06-01T16:53:15;66.18;58.63;79.90;;
74214;Laerm;62576;55.694;37.494;2023-06-01T16:55:45;64.48;57.75;75.38;;
74214;Laerm;62576;55.694;37.494;2023-06-01T16:58:15;66.72;58.04;84.95;;
74214;Laerm;62576;55.694;37.494;2023-06-01T17:00:45;64.11;58.72;68.74;;
74214;Laerm;62576;55.694;37.494;2023-06-01T17:03:15;65.92;58.59;75.67;;
74214;Laerm;62576;55.694;37.494;2023-06-01T17:05:46;65.73;58.71;75.23;;
74214;Laerm;62576;55.694;37.494;2023-06-01T17:08:17;67.78;59.07;84.99;;
74214;Laerm;62576;55.694;37.494;2023-06-01T17:10:47;65.96;58.35;80.58;;
74214;Laerm;62576;55.694;37.494;2023-06-01T17:13:17;66.28;59.07;80.06;;
74214;Laerm;62576;55.694;37.494;2023-06-01T17:15:47;65.88;58.66;70.83;;
74214;Laerm;62576;55.694;37.494;2023-06-01T17:18:17;65.78;59.03;73.56;;
74214;Laerm;62576;55.694;37.494;2023-06-01T17:20:49;66.09;59.30;81.23;;
74214;Laerm;62576;55.694;37.494;2023-06-01T17:23:17;67.14;59.27;82.74;;
74214;Laerm;62576;55.694;37.494;2023-06-01T17:25:50;66.68;58.84;80.03;;
74214;Laerm;62576;55.694;37.494;2023-06-01T17:28:20;68.93;60.00;85.29;;
74214;Laerm;62576;55.694;37.494;2023-06-01T17:30:50;65.04;58.44;76.31;;
74214;Laerm;62576;55.694;37.494;2023-06-01T17:33:20;66.54;60.81;83.88;;
74214;Laerm;62576;55.694;37.494;2023-06-01T17:35:51;65.02;58.23;73.47;;
74214;Laerm;62576;55.694;37.494;2023-06-01T17:38:22;66.67;59.47;82.22;;
74214;Laerm;62576;55.694;37.494;2023-06-01T17:40:52;66.34;57.89;79.39;;
74214;Laerm;62576;55.694;37.494;2023-06-01T17:43:23;65.49;58.92;78.88;;
74214;Laerm;62576;55.694;37.494;2023-06-01T17:45:54;64.52;58.49;69.49;;
74214;Laerm;62576;55.694;37.494;2023-06-01T17:48:27;64.79;59.20;70.86;;
74214;Laerm;62576;55.694;37.494;2023-06-01T17:50:58;71.06;60.89;87.91;;
74214;Laerm;62576;55.694;37.494;2023-06-01T17:53:28;64.99;59.19;72.67;;
74214;Laerm;62576;55.694;37.494;2023-06-01T17:55:57;64.78;58.22;81.42;;
74214;Laerm;62576;55.694;37.494;2023-06-01T17:58:28;66.50;58.33;80.77;;
74214;Laerm;62576;55.694;37.494;2023-06-01T18:00:58;66.70;59.13;79.15;;
74214;Laerm;62576;55.694;37.494;2023-06-01T18:03:28;64.07;58.78;69.10;;
74214;Laerm;62576;55.694;37.494;2023-06-01T18:06:00;66.11;58.90;81.32;;
74214;Laerm;62576;55.694;37.494;2023-06-01T18:08:30;63.26;57.98;68.78;;
74214;Laerm;62576;55.694;37.494;2023-06-01T18:11:00;65.45;57.76;75.82;;
74214;Laerm;62576;55.694;37.494;2023-06-01T18:13:34;64.26;57.29;75.56;;
74214;Laerm;62576;55.694;37.494;2023-06-01T18:16:05;64.18;57.57;76.19;;
74214;Laerm;62576;55.694;37.494;2023-06-01T18:18:34;63.93;58.71;70.34;;
74214;Laerm;62576;55.694;37.494;2023-06-01T18:21:09;67.24;58.75;80.83;;
74214;Laerm;62576;55.694;37.494;2023-06-01T18:23:36;64.66;57.54;70.72;;
74214;Laerm;62576;55.694;37.494;2023-06-01T18:26:06;63.30;57.74;68.61;;
74214;Laerm;62576;55.694;37.494;2023-06-01T18:28:38;66.82;59.13;82.95;;
74214;Laerm;62576;55.694;37.494;2023-06-01T18:31:08;65.61;58.66;76.31;;
74214;Laerm;62576;55.694;37.494;2023-06-01T18:33:39;64.40;57.16;71.63;;
74214;Laerm;62576;55.694;37.494;2023-06-01T18:36:11;64.66;58.46;69.58;;
74214;Laerm;62576;55.694;37.494;2023-06-01T18:38:41;63.02;57.47;68.03;;
74214;Laerm;62576;55.694;37.494;2023-06-01T18:41:11;64.03;58.64;68.48;;
74214;Laerm;62576;55.694;37.494;2023-06-01T18:43:41;64.32;59.18;73.62;;
74214;Laerm;62576;55.694;37.494;2023-06-01T18:46:11;65.48;57.70;81.03;;
74214;Laerm;62576;55.694;37.494;2023-06-01T18:48:41;64.26;57.15;70.63;;
74214;Laerm;62576;55.694;37.494;2023-06-01T18:51:13;67.26;57.86;82.17;;
74214;Laerm;62576;55.694;37.494;2023-06-01T18:53:44;64.37;57.72;72.88;;
74214;Laerm;62576;55.694;37.494;2023-06-01T18:56:14;64.30;58.05;72.07;;
74214;Laerm;62576;55.694;37.494;2023-06-01T18:58:47;69.16;58.58;86.89;;
74214;Laerm;62576;55.694;37.494;2023-06-01T19:01:17;64.33;57.61;75.90;;
74214;Laerm;62576;55.694;37.494;2023-06-01T19:03:47;63.70;56.94;69.27;;
74214;Laerm;62576;55.694;37.494;2023-06-01T19:06:20;63.45;56.53;68.27;;
74214;Laerm;62576;55.694;37.494;2023-06-01T19:08:50;64.30;59.45;68.90;;
74214;Laerm;62576;55.694;37.494;2023-06-01T19:11:20;64.04;59.15;70.81;;
74214;Laerm;62576;55.694;37.494;2023-06-01T19:13:50;63.80;56.96;68.87;;
74214;Laerm;62576;55.694;37.494;2023-06-01T19:16:26;63.87;57.63;69.18;;
74214;Laerm;62576;55.694;37.494;2023-06-01T19:18:58;63.94;58.71;79.92;;
74214;Laerm;62576;55.694;37.494;2023-06-01T19:21:33;70.83;58.19;86.03;;
74214;Laerm;62576;55.694;37.494;2023-06-01T19:24:02;64.78;57.97;75.13;;
74214;Laerm;62576;55.694;37.494;2023-06-01T19:26:34;62.49;57.57;67.71;;
74214;Laerm;62576;55.694;37.494;2023-06-01T19:29:02;63.16;56.89;71.88;;
74214;Laerm;62576;55.694;37.494;2023-06-01T19:31:34;63.98;58.25;69.74;;
74214;Laerm;62576;55.694;37.494;2023-06-01T19:34:06;64.51;57.95;76.77;;
74214;Laerm;62576;55.694;37.494;2023-06-01T19:36:55;64.16;58.42;75.91;;
74214;Laerm;62576;55.694;37.494;2023-06-01T19:39:31;62.66;57.55;68.64;;
74214;Laerm;62576;55.694;37.494;2023-06-01T19:42:06;63.03;57.16;68.57;;
74214;Laerm;62576;55.694;37.494;2023-06-01T19:44:37;63.90;57.41;81.97;;
74214;Laerm;62576;55.694;37.494;2023-06-01T19:47:07;63.25;58.53;69.44;;
74214;Laerm;62576;55.694;37.494;2023-06-01T19:49:39;64.23;58.52;70.84;;
74214;Laerm;62576;55.694;37.494;2023-06-01T19:52:11;63.33;57.61;75.50;;
74214;Laerm;62576;55.694;37.494;2023-06-01T19:54:41;62.94;57.03;68.31;;
74214;Laerm;62576;55.694;37.494;2023-06-01T19:57:11;62.56;57.37;71.08;;
74214;Laerm;62576;55.694;37.494;2023-06-01T19:59:41;69.12;58.07;87.34;;
74214;Laerm;62576;55.694;37.494;2023-06-01T20:02:38;64.45;57.18;76.20;;
74214;Laerm;62576;55.694;37.494;2023-06-01T20:05:17;62.98;56.98;68.73;;
74214;Laerm;62576;55.694;37.494;2023-06-01T20:07:52;65.06;57.11;79.87;;
74214;Laerm;62576;55.694;37.494;2023-06-01T20:10:27;64.70;59.15;76.92;;
74214;Laerm;62576;55.694;37.494;2023-06-01T20:12:59;64.10;56.00;73.98;;
74214;Laerm;62576;55.694;37.494;2023-06-01T20:15:32;63.57;57.05;75.91;;
74214;Laerm;62576;55.694;37.494;2023-06-01T20:18:04;62.72;57.03;69.85;;
74214;Laerm;62576;55.694;37.494;2023-06-01T20:20:35;62.68;56.98;69.17;;
74214;Laerm;62576;55.694;37.494;2023-06-01T20:23:09;61.92;57.11;69.63;;
74214;Laerm;62576;55.694;37.494;2023-06-01T20:25:41;63.75;58.36;73.79;;
74214;Laerm;62576;55.694;37.494;2023-06-01T20:28:13;65.86;57.03;81.96;;
74214;Laerm;62576;55.694;37.494;2023-06-01T20:31:07;63.35;56.63;72.21;;
74214;Laerm;62576;55.694;37.494;2023-06-01T20:33:37;63.07;57.50;73.68;;
74214;Laerm;62576;55.694;37.494;2023-06-01T20:36:07;62.07;56.22;68.24;;
74214;Laerm;62576;55.694;37.494;2023-06-01T20:38:41;62.75;57.24;69.20;;
74214;Laerm;62576;55.694;37.494;2023-06-01T20:41:13;63.00;56.15;69.96;;
74214;Laerm;62576;55.694;37.494;2023-06-01T20:43:45;63.12;56.40;74.28;;
74214;Laerm;62576;55.694;37.494;2023-06-01T20:46:15;61.27;55.84;67.11;;
74214;Laerm;62576;55.694;37.494;2023-06-01T20:48:47;63.74;56.69;72.44;;
74214;Laerm;62576;55.694;37.494;2023-06-01T20:51:23;62.15;57.45;69.77;;
74214;Laerm;62576;55.694;37.494;2023-06-01T20:53:57;62.32;56.36;74.38;;
74214;Laerm;62576;55.694;37.494;2023-06-01T20:56:30;61.45;57.18;71.94;;
74214;Laerm;62576;55.694;37.494;2023-06-01T20:59:03;62.16;58.30;67.91;;
74214;Laerm;62576;55.694;37.494;2023-06-01T21:01:34;61.72;56.42;66.39;;
74214;Laerm;62576;55.694;37.494;2023-06-01T21:04:06;61.42;56.66;66.61;;
74214;Laerm;62576;55.694;37.494;2023-06-01T21:06:38;61.20;56.33;65.88;;
74214;Laerm;62576;55.694;37.494;2023-06-01T21:09:11;62.92;56.80;73.96;;
74214;Laerm;62576;55.694;37.494;2023-06-01T21:11:43;62.91;57.37;74.33;;
74214;Laerm;62576;55.694;37.494;2023-06-01T21:14:13;62.29;55.99;71.28;;
74214;Laerm;62576;55.694;37.494;2023-06-01T21:16:44;61.87;56.31;67.80;;
74214;Laerm;62576;55.694;37.494;2023-06-01T21:19:14;61.96;56.14;70.38;;
74214;Laerm;62576;55.694;37.494;2023-06-01T21:21:45;62.72;55.68;71.65;;
74214;Laerm;62576;55.694;37.494;2023-06-01T21:24:13;60.41;56.57;65.65;;
74214;Laerm;62576;55.694;37.494;2023-06-01T21:26:43;60.44;56.20;70.62;;
74214;Laerm;62576;55.694;37.494;2023-06-01T21:29:13;61.08;56.21;72.00;;
74214;Laerm;62576;55.694;37.494;2023-06-01T21:31:43;63.20;56.26;79.23;;
74214;Laerm;62576;55.694;37.494;2023-06-01T21:34:13;60.50;56.16;66.63;;
74214;Laerm;62576;55.694;37.494;2023-06-01T21:36:43;65.80;56.68;82.84;;
74214;Laerm;62576;55.694;37.494;2023-06-01T21:39:15;61.57;56.17;66.74;;
74214;Laerm;62576;55.694;37.494;2023-06-01T21:41:45;63.18;56.03;78.64;;
74214;Laerm;62576;55.694;37.494;2023-06-01T21:44:14;61.21;54.88;68.03;;
74214;Laerm;62576;55.694;37.494;2023-06-01T21:46:44;63.53;56.19;79.85;;
74214;Laerm;62576;55.694;37.494;2023-06-01T21:49:14;60.01;55.40;69.39;;
74214;Laerm;62576;55.694;37.494;2023-06-01T21:51:44;60.70;55.61;65.92;;
74214;Laerm;62576;55.694;37.494;2023-06-01T21:54:16;60.76;55.58;73.32;;
74214;Laerm;62576;55.694;37.494;2023-06-01T21:56:46;60.42;55.84;66.84;;
74214;Laerm;62576;55.694;37.494;2023-06-01T21:59:16;60.41;55.64;66.63;;
74214;Laerm;62576;55.694;37.494;2023-06-01T22:01:46;62.19;56.12;75.83;;
74214;Laerm;62576;55.694;37.494;2023-06-01T22:04:15;60.10;55.76;75.03;;
74214;Laerm;62576;55.694;37.494;2023-06-01T22:06:46;60.07;55.46;67.36;;
74214;Laerm;62576;55.694;37.494;2023-06-01T22:09:17;60.02;56.22;68.07;;
74214;Laerm;62576;55.694;37.494;2023-06-01T22:11:47;60.90;56.01;67.65;;
74214;Laerm;62576;55.694;37.494;2023-06-01T22:14:17;64.42;56.85;77.20;;
74214;Laerm;62576;55.694;37.494;2023-06-01T22:16:48;61.02;56.60;70.83;;
74214;Laerm;62576;55.694;37.494;2023-06-01T22:19:18;60.37;55.61;69.82;;
74214;Laerm;62576;55.694;37.494;2023-06-01T22:21:48;59.35;55.66;63.66;;
74214;Laerm;62576;55.694;37.494;2023-06-01T22:24:17;60.99;56.09;67.69;;
74214;Laerm;62576;55.694;37.494;2023-06-01T22:26:47;60.81;55.78;71.86;;
74214;Laerm;62576;55.694;37.494;2023-06-01T22:29:17;60.15;55.46;67.54;;
74214;Laerm;62576;55.694;37.494;2023-06-01T22:31:49;59.74;55.95;64.25;;
74214;Laerm;62576;55.694;37.494;2023-06-01T22:34:19;61.01;55.95;76.54;;
74214;Laerm;62576;55.694;37.494;2023-06-01T22:36:49;60.34;55.48;75.29;;
74214;Laerm;62576;55.694;37.494;2023-06-01T22:39:20;59.69;55.82;64.75;;
74214;Laerm;62576;55.694;37.494;2023-06-01T22:41:50;60.70;56.40;74.48;;
74214;Laerm;62576;55.694;37.494;2023-06-01T22:44:17;59.07;55.63;64.97;;
74214;Laerm;62576;55.694;37.494;2023-06-01T22:46:47;61.19;56.11;71.19;;
74214;Laerm;62576;55.694;37.494;2023-06-01T22:49:17;59.02;55.23;64.90;;
74214;Laerm;62576;55.694;37.494;2023-06-01T22:51:53;63.29;55.53;78.41;;
74214;Laerm;62576;55.694;37.494;2023-06-01T22:54:30;58.88;55.34;65.21;;
74214;Laerm;62576;55.694;37.494;2023-06-01T22:57:01;60.70;55.48;67.86;;
74214;Laerm;62576;55.694;37.494;2023-06-01T22:59:31;62.37;56.04;75.21;;
74214;Laerm;62576;55.694;37.494;2023-06-01T23:02:01;58.50;55.52;66.72;;
74214;Laerm;62576;55.694;37.494;2023-06-01T23:04:31;58.50;55.57;63.69;;
74214;Laerm;62576;55.694;37.494;2023-06-01T23:07:02;59.81;55.32;68.24;;
74214;Laerm;62576;55.694;37.494;2023-06-01T23:09:37;58.24;55.09;63.10;;
74214;Laerm;62576;55.694;37.494;2023-06-01T23:12:08;58.67;55.34;64.32;;
74214;Laerm;62576;55.694;37.494;2023-06-01T23:14:40;58.47;55.27;68.77;;
74214;Laerm;62576;55.694;37.494;2023-06-01T23:17:10;58.82;55.17;68.28;;
74214;Laerm;62576;55.694;37.494;2023-06-01T23:19:41;57.69;54.86;62.68;;
74214;Laerm;62576;55.694;37.494;2023-06-01T23:22:11;58.27;55.42;62.42;;
74214;Laerm;62576;55.694;37.494;2023-06-01T23:24:44;58.62;55.09;68.89;;
74214;Laerm;62576;55.694;37.494;2023-06-01T23:27:14;60.42;54.95;79.07;;
74214;Laerm;62576;55.694;37.494;2023-06-01T23:29:44;57.79;54.85;62.39;;
74214;Laerm;62576;55.694;37.494;2023-06-01T23:32:14;58.00;55.24;67.82;;
74214;Laerm;62576;55.694;37.494;2023-06-01T23:34:44;59.02;54.98;65.17;;
74214;Laerm;62576;55.694;37.494;2023-06-01T23:37:14;59.27;55.09;67.98;;
74214;Laerm;62576;55.694;37.494;2023-06-01T23:39:45;59.62;55.12;65.67;;
74214;Laerm;62576;55.694;37.494;2023-06-01T23:42:15;60.46;54.54;75.32;;
74214;Laerm;62576;55.694;37.494;2023-06-01T23:44:46;58.31;54.96;65.39;;
74214;Laerm;62576;55.694;37.494;2023-06-01T23:47:17;59.28;54.77;65.40;;
74214;Laerm;62576;55.694;37.494;2023-06-01T23:49:48;58.31;54.91;64.83;;
74214;Laerm;62576;55.694;37.494;2023-06-01T23:52:20;58.56;55.26;64.23;;
74214;Laerm;62576;55.694;37.494;2023-06-01T23:54:52;58.72;54.76;67.20;;
74214;Laerm;62576;55.694;37.494;2023-06-01T23:57:22;57.65;55.06;66.33;;
74214;Laerm;62576;55.694;37.494;2023-06-01T23:59:52;58.23;54.96;65.24;;
